Time;durP1;ratioP1;P1;durP2;ratioP2;P2;SDS_P1;SDS_P2;PMS_P1;PMS_P2;Temp;Humidity;BMP_temperature;BMP_pressure;BME280_temperature;BME280_humidity;BME280_pressure;Samples;Min_cycle;Max_cycle;Signal;HPM_P1;HPM_P2
2022/05/21 00:01:09;;;;;;;4.47;0.80;;;;;;;;;;5008342;28;20488;-73
2022/05/21 00:03:34;;;;;;;2.25;1.20;;;;;;;;;;5009719;28;20082;-72
2022/05/21 00:06:00;;;;;;;1.50;0.80;;;;;;;;;;5005691;28;20037;-73
2022/05/21 00:08:25;;;;;;;0.55;0.55;;;;;;;;;;5006160;28;20049;-73
2022/05/21 00:10:52;;;;;;;1.30;0.73;;;;;;;;;;5009629;28;20753;-72
2022/05/21 00:13:18;;;;;;;2.83;1.20;;;;;;;;;;5020350;28;20127;-71
2022/05/21 00:15:44;;;;;;;1.63;0.90;;;;;;;;;;5009911;28;20489;-73
2022/05/21 00:18:09;;;;;;;2.88;0.90;;;;;;;;;;5010217;28;20078;-72
2022/05/21 00:20:47;;;;;;;2.42;0.98;;;;;;;;;;5011298;28;20057;-71
2022/05/21 00:23:25;;;;;;;1.45;0.80;;;;;;;;;;5006598;28;20042;-73
2022/05/21 00:26:09;;;;;;;4.50;0.90;;;;;;;;;;5010062;28;22782;-73
2022/05/21 00:28:36;;;;;;;3.22;0.85;;;;;;;;;;5008708;28;20135;-72
2022/05/21 00:31:03;;;;;;;1.02;0.90;;;;;;;;;;5009319;28;20055;-71
2022/05/21 00:33:29;;;;;;;1.35;0.80;;;;;;;;;;5009737;28;20093;-72
2022/05/21 00:35:55;;;;;;;0.77;0.73;;;;;;;;;;5007924;28;20037;-71
2022/05/21 00:38:21;;;;;;;5.47;0.90;;;;;;;;;;5008488;28;20037;-72
2022/05/21 00:40:47;;;;;;;2.30;0.93;;;;;;;;;;5007403;28;20720;-72
2022/05/21 00:43:53;;;;;;;1.25;0.80;;;;;;;;;;5002531;28;20575;-72
2022/05/21 00:46:25;;;;;;;4.07;1.08;;;;;;;;;;4942913;28;20427;-71
2022/05/21 00:49:02;;;;;;;1.70;1.05;;;;;;;;;;4944551;28;20045;-71
2022/05/21 00:51:32;;;;;;;0.93;0.80;;;;;;;;;;4959879;28;20042;-70
2022/05/21 00:54:01;;;;;;;1.52;0.98;;;;;;;;;;4984743;28;20528;-71
2022/05/21 00:56:29;;;;;;;4.68;1.10;;;;;;;;;;4996022;28;20034;-71
2022/05/21 01:01:44;;;;;;;2.08;1.10;;;;;;;;;;4988586;28;20523;-72
2022/05/21 01:04:09;;;;;;;0.82;0.82;;;;;;;;;;4985790;28;20036;-72
2022/05/21 01:06:36;;;;;;;4.43;0.90;;;;;;;;;;4987707;28;20030;-72
2022/05/21 01:09:02;;;;;;;3.35;1.00;;;;;;;;;;4986723;28;20147;-72
2022/05/21 01:11:28;;;;;;;2.15;1.08;;;;;;;;;;4988092;28;22517;-73
2022/05/21 01:13:54;;;;;;;2.28;1.02;;;;;;;;;;4990295;28;20034;-72
2022/05/21 01:16:21;;;;;;;1.42;1.23;;;;;;;;;;4986452;28;20026;-73
2022/05/21 01:18:46;;;;;;;1.88;1.40;;;;;;;;;;4988884;28;20033;-72
2022/05/21 01:21:12;;;;;;;1.80;1.10;;;;;;;;;;4987364;28;21480;-73
2022/05/21 01:23:38;;;;;;;2.70;1.40;;;;;;;;;;4987379;28;20720;-73
2022/05/21 01:26:07;;;;;;;3.67;1.33;;;;;;;;;;4986676;28;20042;-72
2022/05/21 01:28:36;;;;;;;3.25;1.35;;;;;;;;;;4985487;28;20049;-72
2022/05/21 01:31:02;;;;;;;1.42;1.33;;;;;;;;;;4987946;28;20642;-71
2022/05/21 01:33:32;;;;;;;3.00;1.50;;;;;;;;;;4985694;28;20545;-72
2022/05/21 01:35:58;;;;;;;1.73;1.50;;;;;;;;;;4987383;28;20490;-72
2022/05/21 01:38:25;;;;;;;3.28;1.70;;;;;;;;;;4986563;28;20655;-72
2022/05/21 01:40:50;;;;;;;3.58;1.80;;;;;;;;;;4988252;28;20042;-72
2022/05/21 01:46:00;;;;;;;2.63;1.70;;;;;;;;;;4988825;28;20180;-72
2022/05/21 01:48:27;;;;;;;3.25;1.60;;;;;;;;;;4985312;28;20598;-72
2022/05/21 01:50:54;;;;;;;3.60;1.73;;;;;;;;;;4988347;28;20037;-72
2022/05/21 01:53:22;;;;;;;2.85;1.85;;;;;;;;;;4986788;28;20538;-72
2022/05/21 01:55:48;;;;;;;5.88;1.80;;;;;;;;;;4988490;28;20504;-72
2022/05/21 01:58:14;;;;;;;3.08;1.98;;;;;;;;;;4986238;28;20337;-72
2022/05/21 02:00:41;;;;;;;5.45;2.08;;;;;;;;;;5004015;28;20044;-73
2022/05/21 02:03:08;;;;;;;5.15;1.90;;;;;;;;;;4986514;28;20038;-72
2022/05/21 02:05:34;;;;;;;2.58;2.10;;;;;;;;;;4988250;28;20424;-73
2022/05/21 02:07:59;;;;;;;3.13;2.05;;;;;;;;;;4987188;28;20029;-72
2022/05/21 02:10:24;;;;;;;2.35;2.00;;;;;;;;;;4984922;28;20525;-73
2022/05/21 02:12:50;;;;;;;4.05;1.80;;;;;;;;;;4987294;28;20029;-72
2022/05/21 02:15:16;;;;;;;4.15;2.00;;;;;;;;;;4987278;28;20095;-72
2022/05/21 02:17:41;;;;;;;2.25;2.00;;;;;;;;;;4987725;28;20451;-72
2022/05/21 02:20:07;;;;;;;3.40;2.25;;;;;;;;;;4986458;28;20038;-70
2022/05/21 02:22:33;;;;;;;3.38;2.30;;;;;;;;;;4987159;28;20095;-72
2022/05/21 02:24:58;;;;;;;4.50;2.83;;;;;;;;;;4986615;28;21015;-72
2022/05/21 02:27:24;;;;;;;3.05;2.33;;;;;;;;;;4986180;28;20531;-70
2022/05/21 02:29:50;;;;;;;2.70;2.35;;;;;;;;;;4986591;28;20076;-74
2022/05/21 02:32:17;;;;;;;4.93;2.65;;;;;;;;;;4986324;28;20541;-72
2022/05/21 02:34:43;;;;;;;3.08;2.60;;;;;;;;;;4986128;28;20042;-72
2022/05/21 02:39:52;;;;;;;4.25;2.70;;;;;;;;;;4988701;28;20480;-71
2022/05/21 02:45:03;;;;;;;3.97;2.83;;;;;;;;;;4986605;28;20813;-71
2022/05/21 02:47:30;;;;;;;3.38;2.80;;;;;;;;;;4985994;28;20065;-72
2022/05/21 02:49:55;;;;;;;3.05;2.22;;;;;;;;;;4997663;28;20077;-72
2022/05/21 02:52:20;;;;;;;3.17;2.40;;;;;;;;;;4987192;28;20120;-71
2022/05/21 02:54:46;;;;;;;5.53;2.53;;;;;;;;;;4987515;28;20026;-72
2022/05/21 02:57:11;;;;;;;5.43;2.47;;;;;;;;;;4985451;28;20038;-71
2022/05/21 02:59:38;;;;;;;5.68;2.50;;;;;;;;;;4986906;28;20045;-70
2022/05/21 03:02:04;;;;;;;3.85;2.67;;;;;;;;;;4983498;28;20042;-70
2022/05/21 03:04:30;;;;;;;4.75;2.72;;;;;;;;;;4982779;28;20073;-72
2022/05/21 03:06:56;;;;;;;2.97;2.42;;;;;;;;;;4986594;28;20441;-72
2022/05/21 03:12:07;;;;;;;4.28;2.72;;;;;;;;;;4986169;28;20056;-72
2022/05/21 03:14:32;;;;;;;3.38;2.47;;;;;;;;;;4986202;28;20042;-72
2022/05/21 03:16:59;;;;;;;3.72;2.67;;;;;;;;;;4989925;28;20123;-72
2022/05/21 03:19:29;;;;;;;5.05;2.85;;;;;;;;;;4989265;28;21634;-71
2022/05/21 03:21:56;;;;;;;5.32;3.00;;;;;;;;;;4989673;28;20041;-72
2022/05/21 03:24:21;;;;;;;3.63;3.08;;;;;;;;;;4990431;28;20046;-69
2022/05/21 03:26:47;;;;;;;4.80;2.80;;;;;;;;;;4985732;28;20560;-72
2022/05/21 03:29:13;;;;;;;4.95;2.78;;;;;;;;;;4988647;28;20678;-73
2022/05/21 03:31:38;;;;;;;3.03;2.60;;;;;;;;;;4989325;28;20086;-72
2022/05/21 03:34:04;;;;;;;2.85;2.65;;;;;;;;;;4991654;28;20191;-71
2022/05/21 03:36:29;;;;;;;2.80;2.22;;;;;;;;;;5017820;28;20056;-71
2022/05/21 03:38:55;;;;;;;3.05;2.72;;;;;;;;;;5019180;28;20072;-70
2022/05/21 03:41:21;;;;;;;5.80;2.50;;;;;;;;;;4999001;28;20124;-72
2022/05/21 03:43:47;;;;;;;5.60;2.30;;;;;;;;;;5002050;28;20568;-72
2022/05/21 03:46:12;;;;;;;3.47;2.42;;;;;;;;;;4987220;28;20445;-72
2022/05/21 03:48:37;;;;;;;4.63;2.58;;;;;;;;;;4990160;28;20026;-72
2022/05/21 03:51:03;;;;;;;7.15;2.20;;;;;;;;;;4986484;28;20123;-70
2022/05/21 03:53:29;;;;;;;4.55;2.20;;;;;;;;;;4990022;28;20072;-69
2022/05/21 03:55:55;;;;;;;3.58;1.90;;;;;;;;;;4988708;28;20038;-73
2022/05/21 03:58:21;;;;;;;3.30;2.00;;;;;;;;;;4990061;28;20074;-72
2022/05/21 04:00:46;;;;;;;3.30;2.10;;;;;;;;;;5006089;28;20172;-72
2022/05/21 04:03:12;;;;;;;7.65;2.35;;;;;;;;;;4987812;28;20395;-70
2022/05/21 04:05:37;;;;;;;4.10;1.90;;;;;;;;;;4990774;28;20073;-72
2022/05/21 04:08:03;;;;;;;3.90;2.00;;;;;;;;;;4989960;28;20094;-70
2022/05/21 04:10:29;;;;;;;4.03;1.73;;;;;;;;;;4988890;28;20071;-72
2022/05/21 04:12:55;;;;;;;5.07;1.88;;;;;;;;;;4989399;28;20590;-72
2022/05/21 04:15:20;;;;;;;4.10;1.63;;;;;;;;;;4988121;28;20033;-72
2022/05/21 04:17:46;;;;;;;2.78;1.77;;;;;;;;;;4989599;28;20041;-72
2022/05/21 04:20:15;;;;;;;2.20;1.33;;;;;;;;;;4989152;28;20050;-72
2022/05/21 04:22:42;;;;;;;3.17;1.63;;;;;;;;;;4987705;28;20145;-70
2022/05/21 04:25:08;;;;;;;2.65;1.80;;;;;;;;;;4988324;28;20036;-72
2022/05/21 04:27:39;;;;;;;2.53;1.52;;;;;;;;;;4988714;28;20042;-70
2022/05/21 04:30:07;;;;;;;13.15;1.75;;;;;;;;;;4989659;28;20068;-72
2022/05/21 04:32:32;;;;;;;3.42;1.40;;;;;;;;;;4989564;28;20081;-71
2022/05/21 04:34:58;;;;;;;1.83;1.70;;;;;;;;;;4991084;28;20140;-70
2022/05/21 04:37:23;;;;;;;1.80;1.55;;;;;;;;;;4988797;28;20029;-73
2022/05/21 04:39:48;;;;;;;3.28;1.58;;;;;;;;;;4990493;28;21276;-72
2022/05/21 04:42:16;;;;;;;3.20;1.58;;;;;;;;;;4989493;28;20436;-71
2022/05/21 04:44:41;;;;;;;3.10;1.15;;;;;;;;;;4988823;28;20046;-72
2022/05/21 04:47:07;;;;;;;2.05;1.23;;;;;;;;;;4987054;28;20440;-72
2022/05/21 04:49:34;;;;;;;2.92;1.35;;;;;;;;;;4989870;28;20048;-69
2022/05/21 04:52:02;;;;;;;2.83;1.42;;;;;;;;;;4989088;28;20025;-72
2022/05/21 04:54:28;;;;;;;1.48;1.30;;;;;;;;;;4984694;28;20044;-69
2022/05/21 04:56:53;;;;;;;1.92;1.20;;;;;;;;;;4988085;28;20493;-71
2022/05/21 04:59:19;;;;;;;2.50;1.20;;;;;;;;;;4985053;28;20049;-72
2022/05/21 05:01:47;;;;;;;4.20;1.20;;;;;;;;;;4990156;28;20042;-72
2022/05/21 05:04:13;;;;;;;2.95;1.23;;;;;;;;;;4986939;28;20036;-72
2022/05/21 05:06:39;;;;;;;2.70;1.25;;;;;;;;;;4991180;28;20047;-72
2022/05/21 05:09:06;;;;;;;2.90;1.20;;;;;;;;;;5003521;28;20045;-72
2022/05/21 05:11:33;;;;;;;2.53;1.23;;;;;;;;;;4989831;28;21181;-72
2022/05/21 05:13:58;;;;;;;1.75;1.00;;;;;;;;;;4987041;28;20440;-71
2022/05/21 05:16:23;;;;;;;1.95;1.20;;;;;;;;;;4987430;28;20037;-71
2022/05/21 05:18:49;;;;;;;3.88;2.38;;;;;;;;;;4987192;28;20038;-71
2022/05/21 05:21:14;;;;;;;3.15;1.23;;;;;;;;;;4987106;28;20034;-71
2022/05/21 05:23:40;;;;;;;2.55;1.35;;;;;;;;;;5003926;28;20133;-71
2022/05/21 05:26:05;;;;;;;2.85;1.23;;;;;;;;;;4987519;28;20128;-72
2022/05/21 05:28:31;;;;;;;3.70;1.13;;;;;;;;;;4986554;28;20041;-72
2022/05/21 05:30:56;;;;;;;2.22;1.20;;;;;;;;;;5002276;28;20072;-71
2022/05/21 05:33:23;;;;;;;4.20;1.50;;;;;;;;;;4984127;28;20034;-70
2022/05/21 05:35:50;;;;;;;2.30;1.27;;;;;;;;;;4986615;28;20264;-69
2022/05/21 05:38:16;;;;;;;1.63;1.00;;;;;;;;;;4985179;28;20037;-71
2022/05/21 05:40:45;;;;;;;2.95;1.00;;;;;;;;;;4985757;28;20049;-70
2022/05/21 05:43:11;;;;;;;3.60;0.90;;;;;;;;;;4986081;28;20030;-71
2022/05/21 05:45:37;;;;;;;4.22;1.10;;;;;;;;;;4987939;28;20038;-72
2022/05/21 05:48:03;;;;;;;1.75;0.90;;;;;;;;;;4986733;28;20965;-71
2022/05/21 05:50:28;;;;;;;2.03;0.90;;;;;;;;;;4984940;28;20068;-72
2022/05/21 05:52:54;;;;;;;1.80;0.90;;;;;;;;;;4988619;28;20075;-71
2022/05/21 05:55:20;;;;;;;1.65;0.57;;;;;;;;;;4987098;28;20025;-71
2022/05/21 05:57:50;;;;;;;2.00;1.10;;;;;;;;;;4988667;28;20029;-71
2022/05/21 06:00:16;;;;;;;2.67;1.30;;;;;;;;;;4986065;28;20085;-71
2022/05/21 06:02:59;;;;;;;2.60;1.00;;;;;;;;;;4986779;28;20197;-72
2022/05/21 06:05:28;;;;;;;2.60;1.00;;;;;;;;;;4985720;28;20042;-71
2022/05/21 06:07:59;;;;;;;2.17;0.80;;;;;;;;;;4987773;28;20444;-71
2022/05/21 06:10:35;;;;;;;2.28;1.10;;;;;;;;;;4987156;28;20049;-70
2022/05/21 06:13:00;;;;;;;1.63;1.10;;;;;;;;;;4987179;28;20127;-71
2022/05/21 06:15:26;;;;;;;2.60;1.10;;;;;;;;;;4987665;28;20668;-72
2022/05/21 06:17:52;;;;;;;2.25;1.00;;;;;;;;;;4987391;28;20042;-73
2022/05/21 06:20:19;;;;;;;4.03;0.80;;;;;;;;;;4992879;28;20501;-71
2022/05/21 06:22:45;;;;;;;4.65;0.90;;;;;;;;;;4988479;28;20409;-71
2022/05/21 06:25:17;;;;;;;2.22;0.80;;;;;;;;;;4981817;28;20697;-71
2022/05/21 06:27:42;;;;;;;1.60;0.70;;;;;;;;;;5005252;28;20037;-72
2022/05/21 06:30:08;;;;;;;2.15;0.90;;;;;;;;;;4983914;28;20096;-72
2022/05/21 06:32:34;;;;;;;2.28;0.88;;;;;;;;;;4988726;28;20041;-72
2022/05/21 06:35:03;;;;;;;2.80;0.90;;;;;;;;;;4985667;28;20407;-72
2022/05/21 06:37:29;;;;;;;2.60;0.65;;;;;;;;;;4987318;28;20064;-72
2022/05/21 06:39:54;;;;;;;2.05;0.70;;;;;;;;;;4985749;28;20614;-72
2022/05/21 06:42:20;;;;;;;4.03;0.88;;;;;;;;;;4986510;28;20979;-71
2022/05/21 06:44:45;;;;;;;3.33;1.40;;;;;;;;;;4981652;28;20049;-70
2022/05/21 06:47:11;;;;;;;3.85;0.75;;;;;;;;;;4984004;28;20056;-71
2022/05/21 06:49:37;;;;;;;2.75;0.85;;;;;;;;;;4984290;28;20520;-72
2022/05/21 06:52:03;;;;;;;2.45;0.98;;;;;;;;;;4988902;28;20041;-72
2022/05/21 06:54:28;;;;;;;2.17;0.90;;;;;;;;;;4988899;28;20120;-71
2022/05/21 06:56:54;;;;;;;2.88;0.90;;;;;;;;;;4989192;28;20092;-71
2022/05/21 06:59:19;;;;;;;1.55;0.90;;;;;;;;;;4989838;28;20712;-70
2022/05/21 07:01:45;;;;;;;1.63;0.80;;;;;;;;;;4990488;28;20042;-71
2022/05/21 07:04:13;;;;;;;4.10;1.10;;;;;;;;;;4990128;28;21978;-70
2022/05/21 07:07:43;;;;;;;6.20;1.73;;;;;;;;;;4988463;28;20041;-71
2022/05/21 07:09:34;;;;;;;6.47;1.10;;;;;;;;;;4999358;28;20721;-71
2022/05/21 07:12:01;;;;;;;2.58;0.77;;;;;;;;;;5008128;28;20055;-72
2022/05/21 07:14:27;;;;;;;2.35;0.65;;;;;;;;;;4996948;28;20389;-72
2022/05/21 07:16:52;;;;;;;3.03;1.10;;;;;;;;;;4989007;28;20513;-71
2022/05/21 07:19:18;;;;;;;3.15;0.90;;;;;;;;;;4986227;28;20036;-68
2022/05/21 07:21:43;;;;;;;3.67;0.90;;;;;;;;;;5006466;28;20021;-71
2022/05/21 07:24:09;;;;;;;4.18;0.80;;;;;;;;;;4987904;28;20046;-71
2022/05/21 07:26:34;;;;;;;1.98;0.60;;;;;;;;;;4982835;28;20434;-70
2022/05/21 07:28:59;;;;;;;2.30;0.77;;;;;;;;;;4988257;28;20040;-70
2022/05/21 07:31:25;;;;;;;3.08;0.90;;;;;;;;;;4988663;28;20037;-70
2022/05/21 07:33:51;;;;;;;5.00;0.88;;;;;;;;;;4986421;28;20026;-70
2022/05/21 07:36:16;;;;;;;4.95;1.00;;;;;;;;;;4984822;28;20041;-72
2022/05/21 07:38:42;;;;;;;2.55;0.82;;;;;;;;;;4985110;28;20439;-71
2022/05/21 07:41:07;;;;;;;4.60;1.00;;;;;;;;;;4986515;28;20050;-70
2022/05/21 07:43:33;;;;;;;3.60;0.70;;;;;;;;;;4987069;28;20409;-69
2022/05/21 07:45:59;;;;;;;2.55;0.90;;;;;;;;;;4985327;28;20030;-69
2022/05/21 07:48:26;;;;;;;3.15;0.93;;;;;;;;;;4983073;28;20080;-70
2022/05/21 07:51:00;;;;;;;2.85;0.98;;;;;;;;;;4983162;28;20037;-71
2022/05/21 07:53:32;;;;;;;3.13;0.90;;;;;;;;;;4986145;28;20042;-71
2022/05/21 07:55:58;;;;;;;3.22;0.80;;;;;;;;;;4987412;28;20076;-71
2022/05/21 07:58:26;;;;;;;3.15;0.95;;;;;;;;;;4999615;28;20136;-70
2022/05/21 08:00:53;;;;;;;3.95;0.80;;;;;;;;;;4987392;28;20041;-71
2022/05/21 08:03:19;;;;;;;4.60;1.00;;;;;;;;;;4982996;28;20033;-71
2022/05/21 08:05:45;;;;;;;2.05;0.77;;;;;;;;;;4979804;28;20450;-72
2022/05/21 08:08:11;;;;;;;2.85;0.90;;;;;;;;;;4992222;28;20052;-72
2022/05/21 08:10:39;;;;;;;5.03;1.00;;;;;;;;;;5001115;28;20209;-71
2022/05/21 08:13:06;;;;;;;2.63;0.77;;;;;;;;;;4985778;28;20536;-71
2022/05/21 08:15:33;;;;;;;3.40;1.00;;;;;;;;;;5001840;28;20038;-71
2022/05/21 08:18:00;;;;;;;3.03;0.88;;;;;;;;;;4984328;28;20573;-71
2022/05/21 08:20:26;;;;;;;2.42;0.90;;;;;;;;;;4983347;28;20136;-71
2022/05/21 08:28:19;;;;;;;5.03;0.90;;;;;;;;;;5001287;28;20091;-71
2022/05/21 08:30:47;;;;;;;2.65;0.80;;;;;;;;;;4983215;28;20069;-72
2022/05/21 08:33:14;;;;;;;1.77;0.75;;;;;;;;;;4987211;28;20115;-70
2022/05/21 08:35:39;;;;;;;2.22;0.93;;;;;;;;;;4984991;28;20046;-72
2022/05/21 08:38:06;;;;;;;5.07;0.90;;;;;;;;;;4989035;28;20579;-69
2022/05/21 08:40:50;;;;;;;3.63;0.95;;;;;;;;;;4988349;28;20065;-69
2022/05/21 08:43:23;;;;;;;5.18;1.45;;;;;;;;;;4986146;28;20030;-72
2022/05/21 08:46:00;;;;;;;1.90;0.70;;;;;;;;;;4986574;28;20662;-72
2022/05/21 08:48:31;;;;;;;4.20;0.77;;;;;;;;;;4988762;28;20665;-71
2022/05/21 08:50:57;;;;;;;3.40;1.27;;;;;;;;;;5003607;28;20037;-72
2022/05/21 08:53:26;;;;;;;5.32;0.80;;;;;;;;;;5009016;28;20045;-70
2022/05/21 08:55:55;;;;;;;2.85;0.60;;;;;;;;;;4999729;28;20537;-70
2022/05/21 08:58:50;;;;;;;2.85;0.65;;;;;;;;;;4984106;28;20057;-70
2022/05/21 09:01:22;;;;;;;3.22;0.80;;;;;;;;;;4986947;28;20037;-71
2022/05/21 09:03:50;;;;;;;2.60;0.85;;;;;;;;;;4986871;28;20033;-71
2022/05/21 09:06:18;;;;;;;6.60;2.03;;;;;;;;;;4983939;28;20412;-70
2022/05/21 09:08:49;;;;;;;1.80;0.70;;;;;;;;;;4988246;28;20144;-70
2022/05/21 09:11:22;;;;;;;2.65;0.65;;;;;;;;;;4995773;28;20129;-70
2022/05/21 09:14:03;;;;;;;2.72;0.90;;;;;;;;;;5006218;28;20137;-71
2022/05/21 09:19:20;;;;;;;5.30;0.90;;;;;;;;;;4984680;28;20048;-70
2022/05/21 09:21:46;;;;;;;3.40;0.93;;;;;;;;;;4989506;28;20034;-70
2022/05/21 09:24:39;;;;;;;3.55;0.88;;;;;;;;;;4988816;28;20045;-71
2022/05/21 09:27:25;;;;;;;4.90;1.33;;;;;;;;;;4987459;28;20069;-69
2022/05/21 09:29:53;;;;;;;3.03;0.95;;;;;;;;;;4990778;28;20046;-70
2022/05/21 09:32:35;;;;;;;2.17;0.90;;;;;;;;;;4998017;28;20577;-71
2022/05/21 09:35:11;;;;;;;2.10;0.80;;;;;;;;;;5007321;28;20625;-71
2022/05/21 09:37:38;;;;;;;4.47;1.00;;;;;;;;;;5008323;28;20061;-69
2022/05/21 09:40:34;;;;;;;3.50;0.80;;;;;;;;;;5009187;28;20371;-70
2022/05/21 09:45:47;;;;;;;5.20;1.05;;;;;;;;;;4990339;28;20111;-71
2022/05/21 09:48:17;;;;;;;2.15;0.70;;;;;;;;;;4990105;28;20041;-70
2022/05/21 09:50:59;;;;;;;5.50;1.20;;;;;;;;;;4988596;28;20396;-71
2022/05/21 09:53:33;;;;;;;3.07;0.90;;;;;;;;;;4987341;28;20088;-69
2022/05/21 09:56:01;;;;;;;2.88;1.17;;;;;;;;;;4985725;28;20045;-71
2022/05/21 09:58:29;;;;;;;3.22;0.70;;;;;;;;;;4986499;28;20569;-70
2022/05/21 10:00:57;;;;;;;2.65;0.70;;;;;;;;;;4985789;28;20819;-70
2022/05/21 10:03:45;;;;;;;5.43;0.90;;;;;;;;;;4986815;28;20246;-70
2022/05/21 10:06:27;;;;;;;1.98;0.70;;;;;;;;;;4983969;28;20525;-71
2022/05/21 10:11:57;;;;;;;3.20;0.63;;;;;;;;;;4986379;28;20148;-72
2022/05/21 10:14:27;;;;;;;3.60;1.02;;;;;;;;;;4983121;28;20026;-71
2022/05/21 10:17:09;;;;;;;5.35;1.08;;;;;;;;;;4982799;28;20927;-71
2022/05/21 10:19:46;;;;;;;2.17;0.60;;;;;;;;;;4986406;28;20099;-71
2022/05/21 10:22:21;;;;;;;6.78;0.80;;;;;;;;;;5002595;28;22514;-72
2022/05/21 10:25:03;;;;;;;6.10;0.82;;;;;;;;;;5005640;28;20033;-71
2022/05/21 10:27:53;;;;;;;2.13;0.60;;;;;;;;;;5006053;28;20190;-71
2022/05/21 10:30:32;;;;;;;4.32;1.08;;;;;;;;;;5005446;28;20408;-70
2022/05/21 10:33:18;;;;;;;3.78;0.80;;;;;;;;;;5005823;28;20527;-70
2022/05/21 10:36:00;;;;;;;2.85;0.98;;;;;;;;;;5022877;28;20416;-71
2022/05/21 10:38:41;;;;;;;2.35;0.60;;;;;;;;;;5022962;28;20044;-72
2022/05/21 10:41:17;;;;;;;2.83;1.00;;;;;;;;;;5025759;28;20048;-71
2022/05/21 10:44:16;;;;;;;2.65;0.90;;;;;;;;;;5025354;28;20906;-71
2022/05/21 10:47:04;;;;;;;1.00;0.57;;;;;;;;;;5026165;28;20070;-70
2022/05/21 10:49:59;;;;;;;3.42;0.93;;;;;;;;;;5024696;28;20052;-70
2022/05/21 10:52:46;;;;;;;4.38;1.35;;;;;;;;;;5024916;28;20580;-72
2022/05/21 10:55:26;;;;;;;3.17;0.90;;;;;;;;;;5025663;28;20131;-72
2022/05/21 10:58:10;;;;;;;2.33;1.30;;;;;;;;;;5023830;28;20037;-72
2022/05/21 11:01:04;;;;;;;2.72;0.85;;;;;;;;;;5023924;28;20048;-74
2022/05/21 11:04:07;;;;;;;3.85;0.80;;;;;;;;;;5020917;28;20048;-72
2022/05/21 11:07:02;;;;;;;4.13;0.93;;;;;;;;;;5018757;28;20132;-72
2022/05/21 11:09:28;;;;;;;3.83;1.00;;;;;;;;;;5000638;28;20052;-71
2022/05/21 11:12:18;;;;;;;2.92;1.10;;;;;;;;;;5025000;28;20692;-72
2022/05/21 11:15:32;;;;;;;2.03;1.00;;;;;;;;;;5023232;28;20388;-73
2022/05/21 11:18:07;;;;;;;1.33;0.50;;;;;;;;;;5026722;28;20125;-72
2022/05/21 11:20:47;;;;;;;2.85;0.85;;;;;;;;;;5025134;28;20052;-72
2022/05/21 11:23:24;;;;;;;3.20;1.10;;;;;;;;;;5023911;28;20742;-72
2022/05/21 11:26:04;;;;;;;2.90;0.77;;;;;;;;;;5025116;28;20049;-72
2022/05/21 11:28:49;;;;;;;2.35;0.98;;;;;;;;;;5004865;28;21351;-70
2022/05/21 11:37:21;;;;;;;2.50;0.77;;;;;;;;;;5024027;28;20471;-70
2022/05/21 11:39:50;;;;;;;1.83;0.90;;;;;;;;;;5022788;28;20052;-71
2022/05/21 11:42:20;;;;;;;1.85;0.75;;;;;;;;;;5025230;28;20520;-74
2022/05/21 11:44:55;;;;;;;2.90;1.08;;;;;;;;;;5022468;28;20051;-70
2022/05/21 11:47:21;;;;;;;3.42;0.90;;;;;;;;;;5022405;28;20503;-71
2022/05/21 11:49:55;;;;;;;2.97;0.70;;;;;;;;;;5010201;28;20534;-70
2022/05/21 11:52:26;;;;;;;3.92;0.55;;;;;;;;;;5006564;28;20040;-74
2022/05/21 11:54:58;;;;;;;1.80;0.60;;;;;;;;;;5018900;28;20033;-71
2022/05/21 11:57:31;;;;;;;1.95;0.73;;;;;;;;;;5023535;28;20040;-72
2022/05/21 11:59:57;;;;;;;2.47;0.70;;;;;;;;;;5027029;28;20094;-72
2022/05/21 12:02:31;;;;;;;2.63;1.10;;;;;;;;;;5027306;28;20092;-72
2022/05/21 12:05:09;;;;;;;4.07;0.85;;;;;;;;;;5027195;28;20042;-71
2022/05/21 12:07:42;;;;;;;2.88;0.63;;;;;;;;;;5024544;28;20184;-73
2022/05/21 12:10:30;;;;;;;1.88;0.77;;;;;;;;;;5027763;28;20036;-72
2022/05/21 12:13:11;;;;;;;2.88;0.90;;;;;;;;;;5029888;28;20484;-72
2022/05/21 12:15:41;;;;;;;4.78;0.88;;;;;;;;;;5008554;28;20126;-72
2022/05/21 12:18:30;;;;;;;4.38;1.20;;;;;;;;;;5030361;28;20560;-72
2022/05/21 12:20:56;;;;;;;1.55;0.73;;;;;;;;;;5024855;28;20492;-71
2022/05/21 12:23:32;;;;;;;3.13;0.80;;;;;;;;;;5016313;28;20036;-69
2022/05/21 12:26:16;;;;;;;2.38;0.82;;;;;;;;;;5020458;28;20048;-71
2022/05/21 12:29:03;;;;;;;2.38;0.70;;;;;;;;;;5029051;28;20504;-70
2022/05/21 12:31:32;;;;;;;3.08;0.80;;;;;;;;;;5019623;28;20047;-73
2022/05/21 12:34:17;;;;;;;2.05;0.75;;;;;;;;;;5025189;28;20494;-71
2022/05/21 12:36:57;;;;;;;2.30;0.77;;;;;;;;;;5026750;28;20095;-71
2022/05/21 12:39:30;;;;;;;1.75;0.60;;;;;;;;;;5027018;28;20071;-71
2022/05/21 12:42:04;;;;;;;2.65;0.88;;;;;;;;;;5024518;28;20052;-70
2022/05/21 12:44:43;;;;;;;1.90;0.80;;;;;;;;;;5009700;28;20581;-73
2022/05/21 12:47:28;;;;;;;3.70;1.15;;;;;;;;;;5023357;28;20052;-71
2022/05/21 12:49:54;;;;;;;2.65;1.10;;;;;;;;;;5024308;28;22470;-71
2022/05/21 12:52:47;;;;;;;4.10;0.80;;;;;;;;;;5026110;28;20028;-71
2022/05/21 12:55:26;;;;;;;;;;;;;;;;;;5028269;28;20143;-71
2022/05/21 12:57:55;;;;;;;4.80;1.13;;;;;;;;;;5025221;28;19950;-71
2022/05/21 13:00:23;;;;;;;3.88;1.90;;;;;;;;;;5025501;28;20425;-72
2022/05/21 13:02:56;;;;;;;4.95;1.42;;;;;;;;;;5026455;28;20033;-71
2022/05/21 13:05:31;;;;;;;2.78;1.08;;;;;;;;;;5026217;28;20520;-71
2022/05/21 13:08:01;;;;;;;2.45;0.80;;;;;;;;;;5025105;28;20041;-69
2022/05/21 13:10:30;;;;;;;2.08;0.80;;;;;;;;;;5010336;28;20116;-73
2022/05/21 13:13:00;;;;;;;3.25;0.80;;;;;;;;;;5026729;28;20024;-72
2022/05/21 13:15:33;;;;;;;3.40;0.65;;;;;;;;;;5024712;28;20146;-70
2022/05/21 13:18:22;;;;;;;2.30;0.80;;;;;;;;;;5023162;28;20045;-71
2022/05/21 13:21:09;;;;;;;2.60;0.75;;;;;;;;;;5023294;28;20042;-69
2022/05/21 13:23:56;;;;;;;1.55;0.70;;;;;;;;;;5025854;28;20099;-70
2022/05/21 13:26:31;;;;;;;1.42;0.90;;;;;;;;;;5020286;28;20053;-70
2022/05/21 13:29:19;;;;;;;3.45;0.95;;;;;;;;;;5006043;28;20044;-70
2022/05/21 13:31:51;;;;;;;1.95;0.80;;;;;;;;;;5020967;28;20139;-70
2022/05/21 13:34:20;;;;;;;5.82;0.85;;;;;;;;;;5004185;28;20101;-69
2022/05/21 13:36:52;;;;;;;3.75;0.90;;;;;;;;;;5025271;28;20047;-70
2022/05/21 13:39:25;;;;;;;4.55;0.82;;;;;;;;;;5027148;28;20392;-69
2022/05/21 13:41:52;;;;;;;1.65;0.70;;;;;;;;;;5024469;28;20075;-72
2022/05/21 13:44:24;;;;;;;2.00;0.80;;;;;;;;;;5008314;28;20464;-73
2022/05/21 13:46:59;;;;;;;2.30;0.60;;;;;;;;;;5024860;28;20072;-69
2022/05/21 13:49:29;;;;;;;3.17;0.88;;;;;;;;;;5028518;28;20128;-71
2022/05/21 13:51:55;;;;;;;1.70;0.80;;;;;;;;;;5023204;28;20480;-71
2022/05/21 13:54:26;;;;;;;2.90;0.95;;;;;;;;;;5025930;28;20037;-71
2022/05/21 13:57:13;;;;;;;3.42;0.88;;;;;;;;;;5021595;28;20053;-69
2022/05/21 13:59:57;;;;;;;2.60;0.60;;;;;;;;;;5025136;28;20577;-73
2022/05/21 14:02:40;;;;;;;2.22;0.70;;;;;;;;;;5023469;28;20604;-73
2022/05/21 14:05:25;;;;;;;1.63;0.80;;;;;;;;;;5023534;28;20052;-71
2022/05/21 14:08:13;;;;;;;4.82;0.95;;;;;;;;;;5022838;28;20819;-72
2022/05/21 14:10:46;;;;;;;0.98;0.70;;;;;;;;;;5025711;28;20033;-70
2022/05/21 14:13:43;;;;;;;3.58;0.80;;;;;;;;;;5024788;28;20033;-70
2022/05/21 14:16:23;;;;;;;1.52;0.60;;;;;;;;;;5020919;28;20528;-72
2022/05/21 14:19:07;;;;;;;2.60;1.10;;;;;;;;;;5024759;28;20036;-69
2022/05/21 14:21:34;;;;;;;3.75;0.70;;;;;;;;;;5025028;28;20504;-73
2022/05/21 14:27:26;;;;;;;1.42;0.70;;;;;;;;;;5026016;28;20040;-72
2022/05/21 14:29:57;;;;;;;1.38;0.63;;;;;;;;;;5024132;28;20091;-74
2022/05/21 14:32:37;;;;;;;1.38;0.70;;;;;;;;;;5024165;28;20412;-68
2022/05/21 14:35:22;;;;;;;3.15;0.77;;;;;;;;;;5005623;28;20072;-68
2022/05/21 14:37:55;;;;;;;0.70;0.47;;;;;;;;;;5028320;28;20049;-69
2022/05/21 14:40:22;;;;;;;2.55;0.77;;;;;;;;;;5024404;28;20040;-71
2022/05/21 14:42:50;;;;;;;2.33;1.00;;;;;;;;;;5024452;28;20044;-69
2022/05/21 14:45:22;;;;;;;5.18;0.80;;;;;;;;;;5003602;28;20052;-68
2022/05/21 14:47:52;;;;;;;4.13;1.00;;;;;;;;;;5008247;28;20891;-71
2022/05/21 14:53:28;;;;;;;1.88;0.90;;;;;;;;;;5023399;28;20084;-67
2022/05/21 14:55:54;;;;;;;1.75;0.70;;;;;;;;;;4999410;28;20331;-73
2022/05/21 14:58:22;;;;;;;2.35;0.73;;;;;;;;;;5023428;28;20033;-69
2022/05/21 15:00:48;;;;;;;2.03;0.80;;;;;;;;;;5017259;28;20447;-70
2022/05/21 15:03:14;;;;;;;3.65;0.88;;;;;;;;;;5001226;28;20037;-70
2022/05/21 15:05:44;;;;;;;0.63;0.63;;;;;;;;;;5003666;28;20083;-71
2022/05/21 15:08:17;;;;;;;3.08;0.80;;;;;;;;;;5004137;28;20037;-67
2022/05/21 15:10:43;;;;;;;4.43;1.23;;;;;;;;;;5003182;28;20645;-75
2022/05/21 15:13:09;;;;;;;8.30;0.90;;;;;;;;;;5030363;28;20515;-70
2022/05/21 15:15:34;;;;;;;1.77;0.60;;;;;;;;;;5027583;28;20036;-69
2022/05/21 15:17:59;;;;;;;0.93;0.57;;;;;;;;;;5027572;28;20051;-70
2022/05/21 15:20:25;;;;;;;3.90;0.75;;;;;;;;;;5027268;28;20397;-70
2022/05/21 15:22:51;;;;;;;2.15;0.70;;;;;;;;;;5026139;28;20744;-71
2022/05/21 15:25:20;;;;;;;2.60;0.90;;;;;;;;;;5029719;28;20210;-68
2022/05/21 15:27:47;;;;;;;2.45;1.08;;;;;;;;;;5031708;28;20272;-72
2022/05/21 15:30:15;;;;;;;2.00;0.60;;;;;;;;;;5029138;28;20033;-71
2022/05/21 15:32:42;;;;;;;3.22;0.88;;;;;;;;;;5029739;28;20628;-70
2022/05/21 15:35:08;;;;;;;0.80;0.80;;;;;;;;;;5005094;28;20051;-71
2022/05/21 15:37:35;;;;;;;0.93;0.73;;;;;;;;;;5029899;28;20112;-69
2022/05/21 15:40:01;;;;;;;1.27;0.80;;;;;;;;;;5028622;28;20032;-69
2022/05/21 15:42:26;;;;;;;4.55;0.95;;;;;;;;;;5026306;28;20595;-70
2022/05/21 15:44:52;;;;;;;1.67;1.08;;;;;;;;;;5011054;28;20044;-70